createdAt,value
2018-09-03T00:00:00.447Z,6.53
2018-09-03T00:02:29.916Z,8.50
2018-09-03T00:04:58.240Z,7.53
2018-09-03T00:07:26.830Z,6.63
2018-09-03T00:09:55.151Z,6.80
2018-09-03T00:12:23.495Z,5.97
2018-09-03T00:14:51.815Z,5.97
2018-09-03T00:17:20.513Z,6.40
2018-09-03T00:19:48.844Z,7.30
2018-09-03T00:22:17.204Z,6.20
2018-09-03T00:24:45.536Z,6.90
2018-09-03T00:27:13.908Z,6.30
2018-09-03T00:29:42.228Z,6.17
2018-09-03T00:32:15.920Z,5.50
2018-09-03T00:34:49.444Z,7.93
2018-09-03T00:37:23.092Z,6.63
2018-09-03T00:39:57.316Z,6.53
2018-09-03T00:42:30.900Z,6.60
2018-09-03T00:45:04.452Z,5.43
2018-09-03T00:47:32.808Z,6.20
2018-09-03T00:50:01.687Z,5.83
2018-09-03T00:52:30.048Z,6.97
2018-09-03T00:54:58.424Z,6.30
2018-09-03T00:57:26.752Z,6.00
2018-09-03T00:59:55.076Z,8.30
2018-09-03T01:02:23.472Z,6.70
2018-09-03T01:04:51.803Z,7.00
2018-09-03T01:07:20.560Z,7.57
2018-09-03T01:09:48.890Z,7.13
2018-09-03T01:12:17.248Z,6.97
2018-09-03T01:14:45.564Z,6.93
2018-09-03T01:17:13.917Z,7.37
2018-09-03T01:19:42.252Z,5.83
2018-09-03T01:22:10.608Z,6.60
2018-09-03T01:24:38.952Z,6.37
2018-09-03T01:27:07.341Z,7.43
2018-09-03T01:29:35.782Z,6.43
2018-09-03T01:32:04.076Z,6.10
2018-09-03T01:34:32.429Z,7.20
2018-09-03T01:37:00.773Z,7.47
2018-09-03T01:39:29.131Z,8.37
2018-09-03T01:41:57.456Z,6.97
2018-09-03T01:44:25.808Z,7.73
2018-09-03T01:46:54.372Z,8.33
2018-09-03T01:49:22.728Z,7.73
2018-09-03T01:51:51.575Z,7.33
2018-09-03T01:54:19.944Z,7.90
2018-09-03T01:56:48.284Z,8.43
2018-09-03T01:59:16.648Z,8.70
2018-09-03T02:01:45.357Z,7.90
2018-09-03T02:04:13.708Z,8.30
2018-09-03T02:06:42.063Z,7.93
2018-09-03T02:09:11.971Z,8.73
2018-09-03T02:11:40.828Z,8.87
2018-09-03T02:14:09.196Z,9.30
2018-09-03T02:16:38.420Z,7.73
2018-09-03T02:19:07.222Z,8.80
2018-09-03T02:21:35.548Z,6.83
2018-09-03T02:24:03.952Z,7.00
2018-09-03T02:26:32.369Z,11.47
2018-09-03T02:29:01.076Z,9.47
2018-09-03T02:31:29.400Z,9.70
2018-09-03T02:33:57.732Z,8.37
2018-09-03T02:36:26.061Z,8.37
2018-09-03T02:38:54.465Z,7.97
2018-09-03T02:41:22.816Z,9.80
2018-09-03T02:43:51.163Z,9.53
2018-09-03T02:46:19.492Z,10.57
2018-09-03T02:48:47.845Z,9.17
2018-09-03T02:51:16.184Z,10.03
2018-09-03T02:53:44.540Z,9.67
2018-09-03T02:56:12.888Z,8.70
2018-09-03T02:58:41.236Z,9.83
2018-09-03T03:01:09.573Z,9.77
2018-09-03T03:03:37.935Z,10.57
2018-09-03T03:06:06.328Z,7.80
2018-09-03T03:08:34.704Z,10.00
2018-09-03T03:11:03.040Z,8.90
2018-09-03T03:13:31.392Z,7.80
2018-09-03T03:16:00.062Z,8.77
2018-09-03T03:18:28.424Z,8.83
2018-09-03T03:20:56.755Z,7.80
2018-09-03T03:23:25.088Z,9.10
2018-09-03T03:25:53.399Z,8.93
2018-09-03T03:28:21.755Z,9.00
2018-09-03T03:30:50.120Z,7.87
2018-09-03T03:33:18.463Z,8.37
2018-09-03T03:35:46.820Z,10.03
2018-09-03T03:38:15.159Z,8.90
2018-09-03T03:40:43.488Z,8.73
2018-09-03T03:43:11.820Z,9.00
2018-09-03T03:45:40.176Z,9.23
2018-09-03T03:48:08.516Z,8.87
2018-09-03T03:50:36.855Z,11.07
2018-09-03T03:53:05.220Z,8.93
2018-09-03T03:55:33.588Z,9.10
2018-09-03T03:58:01.923Z,9.37
2018-09-03T04:00:30.276Z,9.60
2018-09-03T04:02:58.617Z,8.70
2018-09-03T04:05:26.951Z,8.33
2018-09-03T04:07:55.531Z,10.40
2018-09-03T04:10:23.891Z,10.37
2018-09-03T04:12:54.836Z,10.67
2018-09-03T04:15:24.217Z,9.53
2018-09-03T04:17:52.563Z,10.73
2018-09-03T04:20:20.959Z,8.97
2018-09-03T04:22:49.329Z,11.13
2018-09-03T04:25:17.684Z,10.63
2018-09-03T04:27:46.023Z,10.60
2018-09-03T04:30:14.396Z,8.83
2018-09-03T04:32:42.720Z,9.10
2018-09-03T04:35:11.075Z,9.67
2018-09-03T04:37:39.406Z,8.77
2018-09-03T04:40:07.796Z,9.83
2018-09-03T04:42:36.127Z,9.97
2018-09-03T04:45:04.507Z,10.57
2018-09-03T04:47:32.828Z,8.37
2018-09-03T04:50:01.172Z,9.20
2018-09-03T04:52:29.508Z,9.33
2018-09-03T04:54:57.872Z,9.13
2018-09-03T04:57:26.220Z,8.07
2018-09-03T04:59:54.887Z,9.00
2018-09-03T05:02:23.500Z,9.03
2018-09-03T05:04:51.852Z,9.03
2018-09-03T05:07:20.208Z,10.00
2018-09-03T05:09:48.573Z,9.10
2018-09-03T05:12:16.923Z,8.17
2018-09-03T05:14:45.679Z,8.67
2018-09-03T05:17:13.992Z,9.87
2018-09-03T05:19:42.349Z,8.90
2018-09-03T05:22:10.696Z,9.10
2018-09-03T05:24:39.041Z,7.93
2018-09-03T05:27:07.424Z,8.70
2018-09-03T05:29:35.828Z,7.53
2018-09-03T05:32:04.144Z,8.40
2018-09-03T05:34:32.476Z,10.33
2018-09-03T05:37:00.801Z,8.63
2018-09-03T05:39:29.160Z,8.07
2018-09-03T05:41:57.508Z,9.63
2018-09-03T05:44:25.859Z,8.07
2018-09-03T05:46:54.223Z,10.63
2018-09-03T05:49:22.580Z,8.73
2018-09-03T05:51:50.921Z,10.70
2018-09-03T05:54:19.461Z,7.27
2018-09-03T05:56:47.814Z,9.13
2018-09-03T05:59:16.210Z,8.30
2018-09-03T06:01:44.584Z,7.83
2018-09-03T06:04:13.344Z,8.00
2018-09-03T06:06:41.701Z,7.43
2018-09-03T06:09:11.702Z,7.90
2018-09-03T06:11:40.312Z,9.33
2018-09-03T06:14:08.980Z,8.87
2018-09-03T06:16:37.331Z,10.70
2018-09-03T06:19:05.688Z,8.60
2018-09-03T06:21:34.078Z,9.20
2018-09-03T06:24:02.436Z,8.83
2018-09-03T06:26:30.794Z,8.83
2018-09-03T06:28:59.169Z,7.93
2018-09-03T06:31:27.765Z,8.70
2018-09-03T06:33:56.088Z,8.70
2018-09-03T06:36:24.463Z,7.77
2018-09-03T06:38:52.828Z,7.63
2018-09-03T06:41:21.185Z,8.03
2018-09-03T06:43:49.524Z,7.63
2018-09-03T06:46:18.148Z,8.73
2018-09-03T06:48:46.484Z,8.33
2018-09-03T06:51:15.128Z,8.10
2018-09-03T06:53:43.492Z,8.80
2018-09-03T06:56:11.824Z,7.67
2018-09-03T06:58:40.168Z,9.93
2018-09-03T07:01:08.512Z,8.93
2018-09-03T07:03:37.079Z,8.07
2018-09-03T07:06:06.320Z,9.23
2018-09-03T07:08:34.704Z,7.07
2018-09-03T07:11:03.056Z,7.53
2018-09-03T07:13:31.487Z,7.43
2018-09-03T07:15:59.827Z,8.30
2018-09-03T07:18:28.157Z,8.30
2018-09-03T07:20:56.504Z,8.13
2018-09-03T07:23:24.849Z,10.20
2018-09-03T07:25:53.204Z,8.10
2018-09-03T07:28:21.859Z,7.97
2018-09-03T07:30:50.212Z,9.80
2018-09-03T07:33:18.585Z,7.23
2018-09-03T07:35:46.899Z,8.07
2018-09-03T07:38:15.241Z,8.30
2018-09-03T07:40:43.589Z,8.03
2018-09-03T07:43:11.940Z,7.77
2018-09-03T07:45:40.284Z,8.13
2018-09-03T07:48:08.656Z,7.33
2018-09-03T07:50:36.975Z,8.90
2018-09-03T07:53:05.691Z,7.10
2018-09-03T07:55:34.032Z,7.10
2018-09-03T07:58:03.092Z,7.50
2018-09-03T08:00:31.418Z,7.63
2018-09-03T08:02:59.848Z,7.97
2018-09-03T08:05:28.180Z,7.10
2018-09-03T08:07:56.601Z,7.10
2018-09-03T08:10:24.903Z,7.80
2018-09-03T08:12:53.387Z,9.13
2018-09-03T08:15:21.744Z,7.63
2018-09-03T08:17:50.657Z,7.93
2018-09-03T08:20:19.011Z,9.13
2018-09-03T08:22:47.368Z,7.93
2018-09-03T08:25:15.711Z,9.07
2018-09-03T08:27:44.092Z,9.20
2018-09-03T08:30:12.483Z,8.67
2018-09-03T08:32:41.155Z,9.30
2018-09-03T08:35:09.684Z,8.43
2018-09-03T08:37:38.036Z,15.03
2018-09-03T08:40:06.556Z,23.10
2018-09-03T08:42:34.904Z,8.37
2018-09-03T08:45:03.226Z,7.40
2018-09-03T08:47:31.586Z,8.70
2018-09-03T08:49:59.924Z,8.93
2018-09-03T08:52:28.276Z,7.60
2018-09-03T08:54:56.624Z,8.40
2018-09-03T08:57:24.996Z,8.07
2018-09-03T08:59:53.320Z,7.03
2018-09-03T09:02:21.712Z,8.47
2018-09-03T09:04:50.052Z,7.63
2018-09-03T09:07:18.421Z,8.50
2018-09-03T09:09:46.789Z,8.13
2018-09-03T09:12:15.140Z,8.13
2018-09-03T09:14:43.501Z,8.17
2018-09-03T09:17:11.872Z,8.63
2018-09-03T09:19:40.199Z,8.30
2018-09-03T09:22:08.543Z,7.97
2018-09-03T09:24:36.903Z,8.43
2018-09-03T09:27:05.816Z,7.87
2018-09-03T09:29:34.171Z,7.70
2018-09-03T09:32:02.560Z,8.20
2018-09-03T09:34:30.880Z,8.13
2018-09-03T09:36:59.268Z,7.53
2018-09-03T09:39:27.997Z,7.83
2018-09-03T09:41:56.369Z,8.87
2018-09-03T09:44:24.700Z,7.83
2018-09-03T09:46:53.513Z,8.27
2018-09-03T09:49:22.337Z,7.80
2018-09-03T09:51:50.821Z,22.47
2018-09-03T09:54:19.160Z,7.30
2018-09-03T09:56:48.008Z,7.60
2018-09-03T09:59:16.359Z,6.83
2018-09-03T10:01:44.685Z,6.77
2018-09-03T10:04:13.045Z,6.27
2018-09-03T10:06:41.388Z,6.70
2018-09-03T10:09:09.725Z,7.07
2018-09-03T10:11:38.052Z,6.50
2018-09-03T10:14:07.355Z,6.27
2018-09-03T10:16:35.776Z,8.77
2018-09-03T10:19:04.169Z,7.10
2018-09-03T10:21:32.491Z,6.43
2018-09-03T10:24:00.848Z,7.47
2018-09-03T10:26:29.224Z,7.53
2018-09-03T10:28:57.600Z,6.30
2018-09-03T10:31:26.964Z,7.47
2018-09-03T10:33:55.312Z,5.60
2018-09-03T10:36:23.648Z,7.03
2018-09-03T10:38:51.992Z,6.20
2018-09-03T10:41:20.956Z,7.00
2018-09-03T10:43:49.436Z,6.77
2018-09-03T10:46:17.781Z,6.77
2018-09-03T10:48:46.129Z,7.33
2018-09-03T10:51:14.465Z,7.53
2018-09-03T10:53:42.862Z,7.20
2018-09-03T10:56:11.196Z,7.20
2018-09-03T10:58:39.556Z,8.13
2018-09-03T11:01:07.897Z,7.80
2018-09-03T11:03:36.260Z,7.40
2018-09-03T11:06:04.892Z,6.30
2018-09-03T11:08:33.240Z,7.50
2018-09-03T11:11:01.582Z,6.73
2018-09-03T11:13:30.295Z,7.00
2018-09-03T11:15:58.620Z,7.27
2018-09-03T11:18:28.676Z,5.70
2018-09-03T11:20:57.020Z,7.00
2018-09-03T11:23:25.384Z,6.63
2018-09-03T11:25:53.720Z,6.00
2018-09-03T11:28:22.053Z,5.73
2018-09-03T11:30:50.581Z,8.60
2018-09-03T11:33:19.339Z,6.23
2018-09-03T11:35:47.697Z,5.70
2018-09-03T11:38:16.040Z,5.83
2018-09-03T11:40:44.856Z,5.60
2018-09-03T11:43:13.272Z,6.00
2018-09-03T11:45:41.600Z,5.53
2018-09-03T11:48:10.360Z,6.23
2018-09-03T11:50:39.175Z,6.73
2018-09-03T11:53:07.526Z,6.30
2018-09-03T11:55:35.893Z,6.73
2018-09-03T11:58:04.293Z,6.00
2018-09-03T12:00:32.697Z,8.20
2018-09-03T12:03:01.047Z,5.93
2018-09-03T12:05:29.917Z,6.33
2018-09-03T12:07:58.371Z,5.90
2018-09-03T12:10:26.740Z,7.90
2018-09-03T12:12:55.097Z,6.47
2018-09-03T12:15:32.836Z,6.20
2018-09-03T12:18:01.189Z,5.50
2018-09-03T12:20:29.548Z,6.40
2018-09-03T12:22:57.879Z,7.40
2018-09-03T12:25:26.240Z,7.30
2018-09-03T12:27:54.568Z,6.60
2018-09-03T12:30:23.877Z,6.53
2018-09-03T12:32:52.208Z,6.60
2018-09-03T12:35:20.560Z,6.30
2018-09-03T12:37:49.392Z,6.90
2018-09-03T12:40:17.743Z,7.23
2018-09-03T12:42:46.128Z,6.53
2018-09-03T12:45:14.469Z,6.60
2018-09-03T12:47:43.425Z,7.43
2018-09-03T12:50:11.814Z,7.10
2018-09-03T12:52:40.108Z,7.73
2018-09-03T12:55:08.466Z,7.67
2018-09-03T12:57:36.796Z,7.63
2018-09-03T13:00:05.755Z,9.50
2018-09-03T13:02:39.419Z,8.23
2018-09-03T13:05:02.391Z,7.50
2018-09-03T13:07:30.711Z,7.83
2018-09-03T13:09:59.056Z,8.23
2018-09-03T13:12:27.390Z,7.60
2018-09-03T13:14:55.740Z,7.20
2018-09-03T13:17:24.060Z,7.80
2018-09-03T13:19:52.399Z,8.73
2018-09-03T13:22:20.724Z,7.97
2018-09-03T13:24:49.377Z,8.80
2018-09-03T13:27:17.861Z,10.63
2018-09-03T13:29:46.212Z,8.17
2018-09-03T13:32:14.544Z,8.60
2018-09-03T13:34:42.892Z,11.03
2018-09-03T13:37:11.236Z,8.27
2018-09-03T13:39:39.612Z,9.33
2018-09-03T13:42:07.981Z,8.33
2018-09-03T13:44:36.309Z,13.30
2018-09-03T13:47:05.047Z,14.23
2018-09-03T13:49:33.392Z,8.77
2018-09-03T13:52:01.736Z,9.10
2018-09-03T13:54:30.189Z,9.73
2018-09-03T13:56:58.566Z,9.17
2018-09-03T13:59:28.131Z,9.30
2018-09-03T14:01:57.965Z,9.17
2018-09-03T14:04:26.968Z,10.60
2018-09-03T14:06:55.516Z,9.63
2018-09-03T14:09:24.287Z,10.83
2018-09-03T14:11:53.313Z,9.13
2018-09-03T14:14:22.122Z,8.70
2018-09-03T14:16:54.189Z,9.63
2018-09-03T14:19:22.728Z,8.77
2018-09-03T14:21:51.117Z,10.07
2018-09-03T14:24:19.492Z,9.37
2018-09-03T14:26:47.944Z,21.67
2018-09-03T14:29:16.503Z,52.37
2018-09-03T14:31:45.568Z,8.83
2018-09-03T14:34:14.727Z,10.20
2018-09-03T14:36:44.580Z,9.63
2018-09-03T14:39:14.004Z,10.23
2018-09-03T14:41:43.272Z,10.43
2018-09-03T14:44:13.012Z,9.87
2018-09-03T14:46:42.584Z,9.80
2018-09-03T14:49:12.132Z,10.50
2018-09-03T14:51:40.481Z,9.60
2018-09-03T14:54:08.880Z,10.27
2018-09-03T14:56:38.249Z,11.13
2018-09-03T14:59:06.651Z,11.03
2018-09-03T15:01:35.124Z,17.90
2018-09-03T15:04:04.525Z,11.63
2018-09-03T15:06:33.967Z,10.67
2018-09-03T15:09:03.216Z,10.47
2018-09-03T15:11:32.574Z,11.17
2018-09-03T15:14:03.424Z,11.10
2018-09-03T15:16:35.092Z,11.33
2018-09-03T15:19:05.061Z,10.83
2018-09-03T15:21:34.668Z,9.90
2018-09-03T15:24:04.121Z,11.57
2018-09-03T15:26:32.650Z,12.90
2018-09-03T15:29:00.919Z,11.70
2018-09-03T15:31:30.336Z,10.80
2018-09-03T15:33:58.676Z,11.07
2018-09-03T15:36:27.213Z,86.73
2018-09-03T15:38:56.269Z,49.93
2018-09-03T15:41:24.728Z,11.93
2018-09-03T15:43:53.112Z,11.43
2018-09-03T15:46:21.483Z,11.43
2018-09-03T15:48:50.436Z,11.43
2018-09-03T15:51:20.891Z,12.37
2018-09-03T15:53:52.448Z,10.53
2018-09-03T15:56:22.332Z,11.63
2018-09-03T15:58:50.645Z,10.50
2018-09-03T16:01:20.545Z,11.17
2018-09-03T16:03:48.943Z,11.03
2018-09-03T16:06:17.289Z,11.63
2018-09-03T16:08:45.624Z,11.13
2018-09-03T16:11:15.072Z,10.60
2018-09-03T16:13:45.470Z,11.37
2018-09-03T16:16:14.768Z,11.97
2018-09-03T16:18:45.752Z,10.80
2018-09-03T16:21:15.360Z,10.63
2018-09-03T16:23:44.159Z,11.33
2018-09-03T16:26:13.211Z,11.43
2018-09-03T16:28:43.085Z,10.87
2018-09-03T16:31:11.729Z,12.10
2018-09-03T16:33:40.140Z,10.93
2018-09-03T16:36:08.556Z,11.27
2018-09-03T16:38:36.919Z,11.53
2018-09-03T16:41:05.308Z,11.33
2018-09-03T16:43:33.652Z,12.23
2018-09-03T16:46:02.025Z,11.43
2018-09-03T16:48:30.352Z,25.37
2018-09-03T16:50:58.691Z,12.70
2018-09-03T16:53:27.104Z,12.33
2018-09-03T16:55:55.432Z,11.97
2018-09-03T16:58:23.808Z,12.37
2018-09-03T17:00:52.213Z,12.33
2018-09-03T17:03:20.566Z,12.07
2018-09-03T17:05:48.875Z,14.57
2018-09-03T17:08:17.389Z,13.10
2018-09-03T17:10:46.048Z,12.57
2018-09-03T17:13:14.463Z,11.23
2018-09-03T17:15:42.764Z,12.43
2018-09-03T17:18:11.624Z,12.37
2018-09-03T17:20:39.946Z,15.23
2018-09-03T17:23:08.320Z,12.30
2018-09-03T17:25:36.663Z,14.27
2018-09-03T17:28:05.034Z,16.33
2018-09-03T17:30:33.420Z,14.90
2018-09-03T17:33:02.080Z,13.80
2018-09-03T17:35:30.418Z,21.30
2018-09-03T17:37:59.036Z,13.90
2018-09-03T17:40:27.372Z,14.37
2018-09-03T17:42:55.900Z,12.87
2018-09-03T17:45:24.257Z,15.77
2018-09-03T17:47:52.656Z,16.17
2018-09-03T17:50:20.988Z,15.97
2018-09-03T17:52:49.340Z,15.00
2018-09-03T17:55:17.698Z,14.70
2018-09-03T17:57:46.064Z,14.57
2018-09-03T18:00:14.644Z,15.30
2018-09-03T18:02:42.996Z,15.97
2018-09-03T18:05:11.368Z,15.67
2018-09-03T18:07:39.871Z,15.50
2018-09-03T18:10:08.213Z,16.97
2018-09-03T18:12:36.592Z,17.73
2018-09-03T18:15:04.964Z,18.67
2018-09-03T18:17:33.340Z,17.03
2018-09-03T18:20:01.680Z,17.43
2018-09-03T18:22:30.037Z,17.03
2018-09-03T18:24:58.775Z,19.53
2018-09-03T18:27:27.137Z,16.93
2018-09-03T18:29:55.476Z,15.73
2018-09-03T18:32:23.849Z,17.17
2018-09-03T18:34:52.436Z,18.20
2018-09-03T18:37:20.792Z,16.23
2018-09-03T18:39:49.357Z,18.20
2018-09-03T18:42:17.698Z,19.90
2018-09-03T18:44:46.068Z,16.60
2018-09-03T18:47:14.837Z,17.17
2018-09-03T18:49:43.253Z,17.77
2018-09-03T18:52:11.636Z,16.43
2018-09-03T18:54:39.983Z,19.90
2018-09-03T18:57:08.636Z,15.67
2018-09-03T18:59:37.027Z,15.80
2018-09-03T19:02:05.420Z,17.07
2018-09-03T19:04:33.758Z,17.17
2018-09-03T19:07:02.109Z,14.63
2018-09-03T19:09:30.456Z,15.83
2018-09-03T19:11:58.841Z,18.07
2018-09-03T19:14:27.188Z,18.10
2018-09-03T19:16:55.524Z,16.50
2018-09-03T19:19:23.917Z,16.50
2018-09-03T19:21:52.268Z,16.00
2018-09-03T19:24:20.603Z,15.43
2018-09-03T19:26:48.947Z,17.50
2018-09-03T19:29:17.292Z,17.23
2018-09-03T19:31:45.705Z,16.07
2018-09-03T19:34:14.051Z,17.13
2018-09-03T19:36:42.435Z,16.83
2018-09-03T19:39:10.785Z,16.50
2018-09-03T19:41:39.641Z,16.77
2018-09-03T19:44:08.237Z,16.93
2018-09-03T19:46:36.576Z,17.03
2018-09-03T19:49:04.936Z,19.07
2018-09-03T19:51:33.293Z,16.67
2018-09-03T19:54:01.660Z,14.93
2018-09-03T19:56:31.131Z,15.23
2018-09-03T19:58:59.484Z,17.83
2018-09-03T20:01:27.826Z,15.97
2018-09-03T20:03:56.176Z,16.33
2018-09-03T20:06:24.509Z,14.53
2018-09-03T20:08:52.920Z,14.43
2018-09-03T20:11:21.239Z,15.40
2018-09-03T20:13:49.584Z,14.73
2018-09-03T20:16:18.472Z,14.90
2018-09-03T20:18:46.816Z,15.17
2018-09-03T20:21:15.168Z,14.17
2018-09-03T20:23:43.582Z,17.37
2018-09-03T20:26:11.859Z,16.97
2018-09-03T20:28:40.228Z,15.40
2018-09-03T20:31:09.106Z,15.57
2018-09-03T20:33:37.412Z,15.63
2018-09-03T20:36:05.753Z,14.37
2018-09-03T20:38:34.120Z,15.43
2018-09-03T20:41:02.463Z,14.87
2018-09-03T20:43:30.956Z,14.87
2018-09-03T20:45:59.288Z,46.33
2018-09-03T20:48:27.660Z,15.27
2018-09-03T20:50:56.269Z,18.27
2018-09-03T20:53:24.624Z,14.97
2018-09-03T20:55:52.984Z,14.50
2018-09-03T20:58:21.392Z,18.00
2018-09-03T21:00:51.391Z,17.37
2018-09-03T21:03:20.084Z,18.07
2018-09-03T21:05:48.400Z,17.57
2018-09-03T21:08:17.044Z,16.90
2018-09-03T21:10:45.415Z,16.17
2018-09-03T21:13:13.781Z,17.20
2018-09-03T21:15:42.971Z,14.90
2018-09-03T21:18:11.353Z,14.70
2018-09-03T21:20:39.696Z,14.70
2018-09-03T21:23:08.028Z,17.10
2018-09-03T21:25:36.409Z,13.87
2018-09-03T21:28:04.776Z,14.07
2018-09-03T21:30:33.119Z,16.07
2018-09-03T21:33:01.445Z,15.23
2018-09-03T21:35:29.784Z,16.10
2018-09-03T21:37:58.168Z,14.90
2018-09-03T21:40:26.532Z,16.23
2018-09-03T21:42:54.881Z,17.27
2018-09-03T21:45:23.258Z,16.60
2018-09-03T21:47:51.608Z,18.80
2018-09-03T21:50:20.004Z,16.60
2018-09-03T21:52:48.328Z,15.50
2018-09-03T21:55:16.681Z,16.90
2018-09-03T21:57:45.012Z,18.17
2018-09-03T22:00:13.397Z,15.80
2018-09-03T22:02:41.784Z,17.83
2018-09-03T22:05:10.136Z,17.60
2018-09-03T22:07:38.992Z,15.17
2018-09-03T22:10:07.436Z,14.00
2018-09-03T22:12:35.786Z,14.43
2018-09-03T22:15:04.185Z,15.20
2018-09-03T22:17:32.504Z,14.57
2018-09-03T22:20:00.856Z,13.83
2018-09-03T22:22:29.192Z,16.43
2018-09-03T22:24:58.355Z,14.30
2018-09-03T22:27:26.692Z,13.70
2018-09-03T22:29:55.059Z,13.60
2018-09-03T22:32:23.420Z,14.73
2018-09-03T22:34:51.860Z,15.33
2018-09-03T22:37:20.180Z,16.73
2018-09-03T22:39:49.112Z,18.60
2018-09-03T22:42:17.688Z,20.60
2018-09-03T22:44:46.048Z,26.50
2018-09-03T22:47:14.376Z,27.47
2018-09-03T22:49:42.732Z,26.83
2018-09-03T22:52:11.071Z,25.73
2018-09-03T22:54:39.415Z,31.20
2018-09-03T22:57:07.788Z,27.40
2018-09-03T22:59:36.148Z,29.27
2018-09-03T23:02:04.525Z,28.17
2018-09-03T23:04:32.872Z,29.37
2018-09-03T23:07:01.572Z,27.17
2018-09-03T23:09:29.936Z,28.27
2018-09-03T23:11:58.276Z,29.50
2018-09-03T23:14:27.045Z,29.37
2018-09-03T23:16:55.395Z,34.83
2018-09-03T23:19:23.900Z,29.07
2018-09-03T23:21:52.257Z,31.87
2018-09-03T23:24:20.590Z,32.47
2018-09-03T23:26:48.927Z,29.57
2018-09-03T23:29:17.248Z,32.77
2018-09-03T23:31:45.627Z,33.00
2018-09-03T23:34:14.074Z,34.07
2018-09-03T23:36:42.424Z,35.77
2018-09-03T23:39:10.748Z,32.20
2018-09-03T23:41:39.109Z,32.73
2018-09-03T23:44:07.579Z,30.40
2018-09-03T23:46:36.576Z,30.27
2018-09-03T23:49:04.931Z,31.83
2018-09-03T23:51:33.288Z,28.67
2018-09-03T23:54:01.604Z,32.83
2018-09-03T23:56:29.948Z,31.93
2018-09-03T23:58:58.432Z,32.20
